createdAt,value
2019-04-28T19:34:37.218Z,85.86
2019-04-28T19:40:37.062Z,86.94
2019-04-28T19:46:38.169Z,88.21
2019-04-28T19:52:39.863Z,89.00
2019-04-28T19:58:37.217Z,90.10
2019-04-28T20:04:38.718Z,90.77
2019-04-28T20:10:37.028Z,90.08
2019-04-28T20:16:37.183Z,89.63
2019-04-28T20:22:37.095Z,90.06
2019-04-28T20:28:37.090Z,90.54
2019-04-28T20:34:37.020Z,90.86
2019-04-28T20:40:37.004Z,90.87
2019-04-28T20:46:37.259Z,91.08
2019-04-28T20:52:37.390Z,91.00
2019-04-28T20:58:37.081Z,90.85
2019-04-28T21:04:37.136Z,90.84
2019-04-28T21:10:38.387Z,91.68
2019-04-28T21:16:40.527Z,92.17
2019-04-28T21:22:37.009Z,92.29
2019-04-28T21:28:37.028Z,92.30
2019-04-28T21:34:37.121Z,92.72
2019-04-28T21:40:37.040Z,92.77
2019-04-28T21:50:18.235Z,93.58
2019-04-28T21:56:18.323Z,93.97
2019-04-28T22:02:18.288Z,94.39
2019-04-28T22:08:18.245Z,94.18
2019-04-28T22:14:18.354Z,94.22
2019-04-28T22:20:20.435Z,93.80
2019-04-28T22:26:18.523Z,94.32
2019-04-28T22:32:18.296Z,94.25
2019-04-28T22:38:19.339Z,95.10
2019-04-28T22:44:18.341Z,94.83
2019-04-28T22:50:18.310Z,94.32
2019-04-28T22:56:18.243Z,94.77
2019-04-28T23:02:18.290Z,94.96
2019-04-28T23:08:18.341Z,95.26
2019-04-28T23:14:18.295Z,95.35
2019-04-28T23:20:18.278Z,95.37
2019-04-28T23:26:18.322Z,95.45
2019-04-28T23:32:18.409Z,95.26
2019-04-28T23:38:18.296Z,95.55
2019-04-28T23:44:18.282Z,95.61
2019-04-28T23:50:18.304Z,96.08
2019-04-28T23:56:19.625Z,95.93
